Time;durP1;ratioP1;P1;durP2;ratioP2;P2;SDS_P1;SDS_P2;PMS_P1;PMS_P2;Temp;Humidity;BMP_temperature;BMP_pressure;BME280_temperature;BME280_humidity;BME280_pressure;Samples;Min_cycle;Max_cycle;Signal;HPM_P1;HPM_P2
2022/10/17 00:00:37;;;;;;;14.93;4.50;;;11.00;99.90;;;;;;5084381;28;20120;-63
2022/10/17 00:03:03;;;;;;;10.00;3.78;;;11.10;99.90;;;;;;5051632;28;20048;-63
2022/10/17 00:05:28;;;;;;;12.32;4.25;;;11.10;99.90;;;;;;5083255;28;20040;-63
2022/10/17 00:07:54;;;;;;;12.48;4.40;;;11.20;99.90;;;;;;5050222;28;20135;-62
2022/10/17 00:10:21;;;;;;;12.32;4.28;;;11.20;99.90;;;;;;5086929;28;20163;-62
2022/10/17 00:12:46;;;;;;;9.93;4.07;;;11.40;99.90;;;;;;5055524;28;20044;-63
2022/10/17 00:15:17;;;;;;;8.98;3.80;;;11.40;99.90;;;;;;5088208;28;20044;-63
2022/10/17 00:17:43;;;;;;;9.65;3.55;;;11.50;99.90;;;;;;5053845;28;20383;-63
2022/10/17 00:20:09;;;;;;;12.32;3.65;;;11.60;99.90;;;;;;5055486;28;20079;-63
2022/10/17 00:22:35;;;;;;;10.57;3.85;;;11.60;99.90;;;;;;5070993;28;20370;-63
2022/10/17 00:25:00;;;;;;;10.98;3.67;;;11.70;99.90;;;;;;5086843;28;20128;-63
2022/10/17 00:27:26;;;;;;;10.65;3.63;;;11.80;99.90;;;;;;5055391;28;20049;-63
2022/10/17 00:29:52;;;;;;;9.88;3.38;;;11.80;99.90;;;;;;5087584;28;20148;-63
2022/10/17 00:32:18;;;;;;;9.27;3.67;;;11.90;99.90;;;;;;5054314;28;20072;-63
2022/10/17 00:34:44;;;;;;;13.00;3.13;;;11.90;99.90;;;;;;5055319;28;20033;-63
2022/10/17 00:37:10;;;;;;;10.88;3.42;;;12.00;99.90;;;;;;5070673;28;20188;-63
2022/10/17 00:39:36;;;;;;;9.32;3.50;;;12.00;99.90;;;;;;5054164;28;20504;-62
2022/10/17 00:42:02;;;;;;;10.93;4.18;;;12.10;99.90;;;;;;5053715;28;20095;-63
2022/10/17 00:44:28;;;;;;;11.52;3.75;;;12.10;99.90;;;;;;5070353;28;20041;-63
2022/10/17 00:46:58;;;;;;;11.35;3.78;;;12.10;99.90;;;;;;5086555;28;20043;-63
2022/10/17 00:49:27;;;;;;;10.45;3.60;;;12.20;99.90;;;;;;5054910;28;20104;-63
2022/10/17 00:52:06;;;;;;;8.52;3.55;;;12.20;99.90;;;;;;5053463;28;20037;-63
2022/10/17 00:54:38;;;;;;;11.77;4.18;;;12.20;99.90;;;;;;5052872;28;20079;-63
2022/10/17 00:57:05;;;;;;;11.10;4.00;;;12.30;99.90;;;;;;5054792;28;20044;-63
2022/10/17 00:59:33;;;;;;;12.25;4.22;;;12.40;99.90;;;;;;5052911;28;20084;-63
2022/10/17 01:02:08;;;;;;;10.40;3.95;;;12.40;99.90;;;;;;5054513;28;20048;-63
2022/10/17 01:04:34;;;;;;;;;;;12.40;99.90;;;;;;5054065;28;20033;-63
2022/10/17 01:07:00;;;;;;;13.02;3.80;;;12.40;99.90;;;;;;5053809;28;19917;-63
2022/10/17 01:09:26;;;;;;;10.23;4.25;;;12.50;99.90;;;;;;5086815;28;20040;-63
2022/10/17 01:12:22;;;;;;;10.85;4.50;;;12.50;99.90;;;;;;5053115;28;20043;-63
2022/10/17 01:15:23;;;;;;;9.05;5.00;;;12.50;99.90;;;;;;5052446;28;20112;-63
2022/10/17 01:18:10;;;;;;;8.27;4.45;;;12.50;99.90;;;;;;5054388;28;20044;-62
2022/10/17 01:20:41;;;;;;;12.65;4.50;;;12.50;99.90;;;;;;5051882;28;20081;-63
2022/10/17 01:23:35;;;;;;;9.13;4.20;;;12.60;99.90;;;;;;5054309;28;20037;-63
2022/10/17 01:26:09;;;;;;;12.30;4.38;;;12.60;99.90;;;;;;5054141;28;20120;-63
2022/10/17 01:28:41;;;;;;;8.95;5.10;;;12.60;99.90;;;;;;5068797;28;20049;-63
2022/10/17 01:31:21;;;;;;;14.10;5.03;;;12.60;99.90;;;;;;5086401;28;20044;-63
2022/10/17 01:33:56;;;;;;;9.48;5.35;;;12.70;99.90;;;;;;5052547;28;20557;-63
2022/10/17 01:36:41;;;;;;;;;;;12.70;99.90;;;;;;5085803;28;20047;-63
2022/10/17 01:39:36;;;;;;;9.90;4.68;;;12.70;99.90;;;;;;5052627;28;19916;-63
2022/10/17 01:42:43;;;;;;;9.15;4.38;;;12.70;99.90;;;;;;5076800;28;20124;-63
2022/10/17 01:45:12;;;;;;;9.75;4.65;;;12.70;99.90;;;;;;5053325;28;20087;-63
2022/10/17 01:47:40;;;;;;;14.15;4.80;;;12.70;99.90;;;;;;5086215;28;20041;-63
2022/10/17 01:50:18;;;;;;;8.90;5.05;;;12.70;99.90;;;;;;5051678;28;20086;-63
2022/10/17 01:52:50;;;;;;;12.45;5.15;;;12.60;99.90;;;;;;5052621;28;20048;-63
2022/10/17 01:55:22;;;;;;;9.13;5.03;;;12.60;99.90;;;;;;5053610;28;20047;-63
2022/10/17 01:57:58;;;;;;;9.85;4.00;;;12.60;99.90;;;;;;5051724;28;20509;-63
2022/10/17 02:00:26;;;;;;;8.35;5.10;;;12.60;99.90;;;;;;5052614;28;20048;-62
2022/10/17 02:02:56;;;;;;;10.00;5.47;;;12.60;99.90;;;;;;5052780;28;20126;-63
2022/10/17 02:05:26;;;;;;;10.07;5.18;;;12.50;99.90;;;;;;5052262;28;20045;-63
2022/10/17 02:07:52;;;;;;;10.25;5.05;;;12.50;99.90;;;;;;5053527;28;20235;-63
2022/10/17 02:10:50;;;;;;;8.63;5.05;;;12.50;99.90;;;;;;5084820;28;20128;-63
2022/10/17 02:13:43;;;;;;;10.65;5.85;;;12.50;99.90;;;;;;5053489;28;20045;-63
2022/10/17 02:16:20;;;;;;;10.85;5.15;;;12.50;99.90;;;;;;5052007;28;20044;-62
2022/10/17 02:19:02;;;;;;;10.13;4.85;;;12.40;99.90;;;;;;5084575;28;20389;-63
2022/10/17 02:21:52;;;;;;;15.30;5.15;;;12.40;99.90;;;;;;5085654;28;20040;-63
2022/10/17 02:24:51;;;;;;;15.00;5.60;;;12.50;99.90;;;;;;5034495;28;20052;-63
2022/10/17 02:27:32;;;;;;;10.10;5.13;;;12.40;99.90;;;;;;5068667;28;20051;-63
2022/10/17 02:30:03;;;;;;;11.27;5.85;;;12.40;99.90;;;;;;5085281;28;20037;-63
2022/10/17 02:32:45;;;;;;;12.02;5.53;;;12.40;99.90;;;;;;5084198;28;20174;-63
2022/10/17 02:35:14;;;;;;;13.18;4.90;;;12.40;99.90;;;;;;5052036;28;20040;-63
2022/10/17 02:37:42;;;;;;;8.18;5.28;;;12.40;99.90;;;;;;5051709;28;20044;-62
2022/10/17 02:40:11;;;;;;;13.90;5.60;;;12.40;99.90;;;;;;5050968;28;20075;-62
2022/10/17 02:42:38;;;;;;;10.00;5.57;;;12.40;99.90;;;;;;5051736;28;20042;-63
2022/10/17 02:45:05;;;;;;;11.20;5.78;;;12.40;99.90;;;;;;5051975;28;20037;-63
2022/10/17 02:47:48;;;;;;;10.10;5.85;;;12.40;99.90;;;;;;5051179;28;20123;-63
2022/10/17 02:50:14;;;;;;;13.23;5.72;;;12.40;99.90;;;;;;5052486;28;20041;-63
2022/10/17 02:52:49;;;;;;;10.52;6.63;;;12.40;99.90;;;;;;5050850;28;20103;-62
2022/10/17 02:55:23;;;;;;;11.90;5.95;;;12.40;99.90;;;;;;5051275;28;20074;-63
2022/10/17 02:58:11;;;;;;;11.13;5.40;;;12.30;99.90;;;;;;5084695;28;20068;-63
2022/10/17 03:00:39;;;;;;;12.23;5.88;;;12.40;99.90;;;;;;5051545;28;20033;-63
2022/10/17 03:03:28;;;;;;;12.95;6.43;;;12.40;99.90;;;;;;5051091;28;20490;-63
2022/10/17 03:05:54;;;;;;;9.55;5.80;;;12.40;99.90;;;;;;5067722;28;20033;-62
2022/10/17 03:08:20;;;;;;;12.93;6.38;;;12.40;99.90;;;;;;5066843;28;20041;-63
2022/10/17 03:10:46;;;;;;;10.77;6.47;;;12.40;99.90;;;;;;5052244;28;20047;-63
2022/10/17 03:13:12;;;;;;;13.38;6.93;;;12.40;99.90;;;;;;5083665;28;20468;-63
2022/10/17 03:15:38;;;;;;;13.43;7.57;;;12.40;99.90;;;;;;5051079;28;20045;-63
2022/10/17 03:18:04;;;;;;;15.40;7.55;;;12.40;99.90;;;;;;5084381;28;20048;-63
2022/10/17 03:20:29;;;;;;;10.48;7.15;;;12.40;99.90;;;;;;5033415;28;20461;-63
2022/10/17 03:22:55;;;;;;;12.05;7.35;;;12.50;99.90;;;;;;5052127;28;20116;-62
2022/10/17 03:25:21;;;;;;;11.57;7.45;;;12.50;99.90;;;;;;5051804;28;20084;-63
2022/10/17 03:27:46;;;;;;;18.27;7.78;;;12.50;99.90;;;;;;5083433;28;20059;-63
2022/10/17 03:30:12;;;;;;;13.95;8.82;;;12.60;99.90;;;;;;5084117;28;20471;-63
2022/10/17 03:32:38;;;;;;;13.73;7.68;;;12.60;99.90;;;;;;5084666;28;20084;-63
2022/10/17 03:35:04;;;;;;;12.43;7.97;;;12.60;99.90;;;;;;5051061;28;20098;-63
2022/10/17 03:37:29;;;;;;;12.15;8.10;;;12.60;99.90;;;;;;5051933;28;20044;-62
2022/10/17 03:39:55;;;;;;;11.98;8.50;;;12.60;99.90;;;;;;5051829;28;20037;-63
2022/10/17 03:42:22;;;;;;;13.93;8.40;;;12.60;99.90;;;;;;5083276;28;20124;-62
2022/10/17 03:44:47;;;;;;;12.73;8.45;;;12.60;99.90;;;;;;5056544;28;20128;-63
2022/10/17 03:47:13;;;;;;;13.95;8.75;;;12.70;99.90;;;;;;5090675;28;20462;-62
2022/10/17 03:49:39;;;;;;;13.32;8.63;;;12.70;99.90;;;;;;5090370;28;20048;-63
2022/10/17 03:52:04;;;;;;;13.25;8.45;;;12.70;99.90;;;;;;5058522;28;20044;-63
2022/10/17 03:54:30;;;;;;;12.30;8.70;;;12.70;99.90;;;;;;5057396;28;20466;-63
2022/10/17 03:56:56;;;;;;;12.75;9.27;;;12.70;99.90;;;;;;5090471;28;20531;-62
2022/10/17 03:59:21;;;;;;;14.32;8.98;;;12.70;99.90;;;;;;5057204;28;20037;-63
2022/10/17 04:01:47;;;;;;;15.27;9.98;;;12.70;99.90;;;;;;5090686;28;20405;-63
2022/10/17 04:04:13;;;;;;;13.02;10.02;;;12.70;99.90;;;;;;5057570;28;20048;-63
2022/10/17 04:06:38;;;;;;;13.48;10.35;;;12.70;99.90;;;;;;5057349;28;20405;-63
2022/10/17 04:09:05;;;;;;;15.95;9.85;;;12.70;99.90;;;;;;5058305;28;20037;-63
2022/10/17 04:11:31;;;;;;;16.23;11.60;;;12.70;99.90;;;;;;5055963;28;20543;-63
2022/10/17 04:13:58;;;;;;;14.38;10.98;;;12.70;99.90;;;;;;5057128;28;20048;-63
2022/10/17 04:16:24;;;;;;;14.60;11.38;;;12.70;99.90;;;;;;5057054;28;20055;-63
2022/10/17 04:18:54;;;;;;;14.85;10.38;;;12.70;99.90;;;;;;5056494;28;20040;-63
2022/10/17 04:21:21;;;;;;;16.15;11.88;;;12.80;99.90;;;;;;5056788;28;20045;-63
2022/10/17 04:23:46;;;;;;;18.60;13.07;;;12.70;99.90;;;;;;5057460;28;20056;-63
2022/10/17 04:26:12;;;;;;;18.23;13.05;;;12.80;99.90;;;;;;5056742;28;20498;-63
2022/10/17 04:28:38;;;;;;;18.83;13.25;;;12.80;99.90;;;;;;5057018;28;20048;-63
2022/10/17 04:31:06;;;;;;;16.35;12.85;;;12.80;99.90;;;;;;5057173;28;20099;-63
2022/10/17 04:33:32;;;;;;;15.43;12.82;;;12.80;99.90;;;;;;5056543;28;20512;-63
2022/10/17 04:36:25;;;;;;;16.20;12.00;;;12.90;99.90;;;;;;5056762;28;20040;-62
2022/10/17 04:38:51;;;;;;;17.13;12.60;;;12.90;99.90;;;;;;5069616;28;20082;-62
2022/10/17 04:41:18;;;;;;;18.85;13.98;;;12.90;99.90;;;;;;5058281;28;20120;-62
2022/10/17 04:43:44;;;;;;;17.10;12.57;;;13.00;99.90;;;;;;5058158;28;20040;-63
2022/10/17 04:46:13;;;;;;;19.42;13.63;;;13.00;99.90;;;;;;5057535;28;20167;-63
2022/10/17 04:48:39;;;;;;;17.17;13.85;;;13.00;99.90;;;;;;5057938;28;20059;-63
2022/10/17 04:51:11;;;;;;;17.17;12.82;;;13.00;99.90;;;;;;5056689;28;20563;-62
2022/10/17 04:53:38;;;;;;;19.80;14.40;;;13.10;99.90;;;;;;5039538;28;20045;-62
2022/10/17 04:56:13;;;;;;;18.05;14.52;;;13.10;99.90;;;;;;5036184;28;20116;-62
2022/10/17 04:58:39;;;;;;;;;;;13.10;99.90;;;;;;5054780;28;20041;-63
2022/10/17 05:01:06;;;;;;;16.92;14.18;;;13.10;99.90;;;;;;5053489;28;19931;-62
2022/10/17 05:03:33;;;;;;;17.83;14.88;;;13.10;99.90;;;;;;5036495;28;20051;-62
2022/10/17 05:06:06;;;;;;;21.25;14.35;;;13.20;99.90;;;;;;5052465;28;20059;-63
2022/10/17 05:08:31;;;;;;;17.30;12.90;;;13.20;99.90;;;;;;5054470;28;20049;-62
2022/10/17 05:10:57;;;;;;;18.10;13.95;;;13.30;99.90;;;;;;5053344;28;20438;-62
2022/10/17 05:13:23;;;;;;;19.17;14.98;;;13.30;99.90;;;;;;5052584;28;20106;-62
2022/10/17 05:15:49;;;;;;;19.70;14.35;;;13.30;99.90;;;;;;5053147;28;20041;-63
2022/10/17 05:18:14;;;;;;;19.10;13.93;;;13.30;99.90;;;;;;5053015;28;20119;-63
2022/10/17 05:20:40;;;;;;;17.20;14.18;;;13.30;99.90;;;;;;5053971;28;20116;-62
2022/10/17 05:23:06;;;;;;;20.55;14.98;;;13.40;99.90;;;;;;5053007;28;20496;-62
2022/10/17 05:25:35;;;;;;;18.02;15.00;;;13.40;99.90;;;;;;5054060;28;20067;-63
2022/10/17 05:28:00;;;;;;;23.58;14.82;;;13.50;99.90;;;;;;5051925;28;20529;-62
2022/10/17 05:30:26;;;;;;;21.58;15.27;;;13.50;99.90;;;;;;5053250;28;20041;-63
2022/10/17 05:32:53;;;;;;;16.92;14.02;;;13.50;99.90;;;;;;5053961;28;20045;-63
2022/10/17 05:35:19;;;;;;;20.52;13.57;;;13.50;99.90;;;;;;5052132;28;20045;-62
2022/10/17 05:37:45;;;;;;;23.23;14.93;;;13.50;99.90;;;;;;5052728;28;20080;-62
2022/10/17 05:40:11;;;;;;;19.10;15.65;;;13.50;99.90;;;;;;5052865;28;20077;-62
2022/10/17 05:42:37;;;;;;;18.40;14.57;;;13.50;99.90;;;;;;5053234;28;20045;-62
2022/10/17 05:45:03;;;;;;;20.88;15.70;;;13.60;99.90;;;;;;5052598;28;20482;-62
2022/10/17 05:47:29;;;;;;;20.58;15.93;;;13.50;99.90;;;;;;5053783;28;20048;-63
2022/10/17 05:49:54;;;;;;;21.20;15.50;;;13.60;99.90;;;;;;5051778;28;20045;-62
2022/10/17 05:52:20;;;;;;;20.40;15.43;;;13.60;99.90;;;;;;5052148;28;20040;-62
2022/10/17 05:54:45;;;;;;;19.33;15.40;;;13.70;99.90;;;;;;5052421;28;20040;-63
2022/10/17 05:57:11;;;;;;;21.63;15.75;;;13.70;99.90;;;;;;5051885;28;20041;-62
2022/10/17 05:59:37;;;;;;;21.17;14.90;;;13.70;99.90;;;;;;5052592;28;20051;-63
2022/10/17 06:02:02;;;;;;;21.52;16.23;;;13.70;99.90;;;;;;5052697;28;20047;-63
2022/10/17 06:04:28;;;;;;;24.50;16.17;;;13.70;99.90;;;;;;5052328;28;20037;-63
2022/10/17 06:06:55;;;;;;;21.05;15.55;;;13.80;99.90;;;;;;5051580;28;20072;-63
2022/10/17 06:09:22;;;;;;;19.42;13.32;;;13.80;99.90;;;;;;5051394;28;20049;-62
2022/10/17 06:11:47;;;;;;;19.65;14.55;;;13.80;99.90;;;;;;5051906;28;20090;-62
2022/10/17 06:14:13;;;;;;;19.38;15.50;;;13.80;99.90;;;;;;5052206;28;20045;-63
2022/10/17 06:16:38;;;;;;;21.65;15.27;;;13.90;99.90;;;;;;5051569;28;20056;-63
2022/10/17 06:19:04;;;;;;;20.48;15.20;;;13.90;99.90;;;;;;5052582;28;20037;-62
2022/10/17 06:21:33;;;;;;;21.38;14.80;;;13.90;99.90;;;;;;5042039;28;20575;-62
2022/10/17 06:24:05;;;;;;;18.80;13.85;;;13.90;99.90;;;;;;5051315;28;20040;-62
2022/10/17 06:26:30;;;;;;;19.90;14.63;;;14.00;99.90;;;;;;5051670;28;20068;-62
2022/10/17 06:28:56;;;;;;;18.70;14.02;;;14.00;99.90;;;;;;5049358;28;20057;-62
2022/10/17 06:31:22;;;;;;;17.67;13.30;;;14.00;99.90;;;;;;5031666;28;20041;-63
2022/10/17 06:33:47;;;;;;;20.75;14.05;;;14.10;99.90;;;;;;5048746;28;20045;-63
2022/10/17 06:36:14;;;;;;;23.95;15.63;;;14.10;99.90;;;;;;5047576;28;20445;-62
2022/10/17 06:38:40;;;;;;;20.23;15.00;;;14.10;99.90;;;;;;5047176;28;20409;-63
2022/10/17 06:41:07;;;;;;;18.58;14.52;;;14.10;99.90;;;;;;5047824;28;20128;-62
2022/10/17 06:43:37;;;;;;;18.02;13.95;;;14.10;99.90;;;;;;5048658;28;20056;-62
2022/10/17 06:46:03;;;;;;;20.00;15.00;;;14.10;99.90;;;;;;5047647;28;20521;-62
2022/10/17 06:48:29;;;;;;;19.70;12.88;;;14.10;99.90;;;;;;5048496;28;20490;-62
2022/10/17 06:51:01;;;;;;;19.38;14.52;;;14.10;99.90;;;;;;5048465;28;20060;-62
2022/10/17 06:53:28;;;;;;;19.25;13.48;;;14.10;99.90;;;;;;5048484;28;20497;-62
2022/10/17 06:55:54;;;;;;;18.92;13.88;;;14.10;99.90;;;;;;5047369;28;20057;-62
2022/10/17 06:58:21;;;;;;;23.60;15.98;;;14.20;99.90;;;;;;5049274;28;20489;-62
2022/10/17 07:00:46;;;;;;;19.02;13.70;;;14.20;99.90;;;;;;5048671;28;20079;-62
2022/10/17 07:03:12;;;;;;;21.90;14.27;;;14.20;99.90;;;;;;5031948;28;20068;-62
2022/10/17 07:05:37;;;;;;;20.30;13.60;;;14.20;99.90;;;;;;5049153;28;20040;-62
2022/10/17 07:08:04;;;;;;;17.15;13.43;;;14.30;99.90;;;;;;5031744;28;20049;-63
2022/10/17 07:10:30;;;;;;;17.75;12.63;;;14.30;99.90;;;;;;5048055;28;20076;-62
2022/10/17 07:12:55;;;;;;;17.42;12.68;;;14.40;99.90;;;;;;5046808;28;20084;-62
2022/10/17 07:15:21;;;;;;;17.75;12.20;;;14.40;99.90;;;;;;5047048;28;20040;-63
2022/10/17 07:17:50;;;;;;;19.80;13.88;;;14.50;99.90;;;;;;5047007;28;20490;-63
2022/10/17 07:20:15;;;;;;;18.98;12.35;;;14.50;99.90;;;;;;5048320;28;20045;-63
2022/10/17 07:22:41;;;;;;;17.20;12.35;;;14.60;99.90;;;;;;5047755;28;20047;-63
2022/10/17 07:25:07;;;;;;;14.35;11.35;;;14.70;99.90;;;;;;5047649;28;20187;-62
2022/10/17 07:27:33;;;;;;;14.88;11.40;;;14.70;99.90;;;;;;5047964;28;20750;-63
2022/10/17 07:29:59;;;;;;;17.88;11.70;;;14.80;99.90;;;;;;5048642;28;20047;-63
2022/10/17 07:32:24;;;;;;;15.32;11.70;;;14.90;99.90;;;;;;5047505;28;20045;-63
2022/10/17 07:34:50;;;;;;;16.20;11.68;;;14.90;99.90;;;;;;5047059;28;20052;-62
2022/10/17 07:37:16;;;;;;;17.15;12.80;;;15.00;99.90;;;;;;5047849;28;20049;-62
2022/10/17 07:39:41;;;;;;;16.58;12.20;;;15.00;99.90;;;;;;5048710;28;20689;-62
2022/10/17 07:42:07;;;;;;;15.82;11.93;;;15.10;99.90;;;;;;5047328;28;20041;-63
2022/10/17 07:44:34;;;;;;;19.33;12.77;;;15.10;99.90;;;;;;5047360;28;20508;-63
2022/10/17 07:47:00;;;;;;;18.55;12.27;;;15.20;99.90;;;;;;5046548;28;20032;-63
2022/10/17 07:49:25;;;;;;;13.85;10.52;;;15.20;99.90;;;;;;5049593;28;20358;-63
2022/10/17 07:51:51;;;;;;;14.88;10.65;;;15.20;99.90;;;;;;5049897;28;20045;-63
2022/10/17 07:54:16;;;;;;;16.45;10.23;;;15.30;99.90;;;;;;5049820;28;20119;-63
2022/10/17 07:56:42;;;;;;;15.30;10.88;;;15.40;99.90;;;;;;5050784;28;20037;-62
2022/10/17 07:59:08;;;;;;;13.75;9.90;;;15.40;99.90;;;;;;5049606;28;20045;-62
2022/10/17 08:01:34;;;;;;;16.90;10.65;;;15.50;99.90;;;;;;5033518;28;20386;-62
2022/10/17 08:04:00;;;;;;;17.02;10.80;;;15.50;99.90;;;;;;5051767;28;20033;-62
2022/10/17 08:06:25;;;;;;;16.95;10.20;;;15.50;99.90;;;;;;5050354;28;20037;-62
2022/10/17 08:08:51;;;;;;;12.98;9.88;;;15.60;99.90;;;;;;5049860;28;20037;-62
2022/10/17 08:11:17;;;;;;;15.25;9.95;;;15.60;99.90;;;;;;5050300;28;20045;-62
2022/10/17 08:13:42;;;;;;;15.50;9.98;;;15.70;99.90;;;;;;5034160;28;20048;-62
2022/10/17 08:16:10;;;;;;;14.30;9.40;;;15.70;99.90;;;;;;5049664;28;20040;-62
2022/10/17 08:18:39;;;;;;;14.00;9.50;;;15.70;99.90;;;;;;5051640;28;20393;-62
2022/10/17 08:21:08;;;;;;;14.32;10.15;;;15.80;99.90;;;;;;5051216;28;20951;-62
2022/10/17 08:23:35;;;;;;;17.25;9.68;;;15.80;99.90;;;;;;5050609;28;20044;-62
2022/10/17 08:26:03;;;;;;;13.00;9.43;;;15.80;99.90;;;;;;5049945;28;20064;-62
2022/10/17 08:28:29;;;;;;;12.75;9.13;;;15.90;99.90;;;;;;5033529;28;20049;-62
2022/10/17 08:31:02;;;;;;;16.13;9.25;;;15.80;99.90;;;;;;5053757;28;20116;-63
2022/10/17 08:33:28;;;;;;;14.25;9.68;;;15.90;99.90;;;;;;5053977;28;20044;-62
2022/10/17 08:35:53;;;;;;;12.90;9.43;;;15.90;99.90;;;;;;5053717;28;20048;-62
2022/10/17 08:38:19;;;;;;;15.25;9.88;;;15.90;99.90;;;;;;5054477;28;20386;-62
2022/10/17 08:40:48;;;;;;;12.82;9.52;;;16.00;99.90;;;;;;5053976;28;20417;-62
2022/10/17 08:43:49;;;;;;;10.70;8.40;;;16.00;99.90;;;;;;5053908;28;20090;-62
2022/10/17 08:46:15;;;;;;;11.80;9.02;;;16.00;99.90;;;;;;5053810;28;20072;-63
2022/10/17 08:48:46;;;;;;;14.90;9.65;;;16.00;99.90;;;;;;5055085;28;20075;-62
2022/10/17 08:51:32;;;;;;;11.88;9.23;;;16.10;99.90;;;;;;5052836;28;20063;-62
2022/10/17 08:54:09;;;;;;;13.10;9.23;;;16.10;99.90;;;;;;5054877;28;20044;-62
2022/10/17 08:56:41;;;;;;;13.07;9.13;;;16.10;99.90;;;;;;5036939;28;20033;-62
2022/10/17 08:59:13;;;;;;;12.27;10.05;;;16.10;99.90;;;;;;5052703;28;20047;-62
2022/10/17 09:01:44;;;;;;;12.80;9.00;;;16.10;99.90;;;;;;5055073;28;20394;-62
2022/10/17 09:04:12;;;;;;;12.52;9.27;;;16.20;99.90;;;;;;5054928;28;20037;-62
2022/10/17 09:06:46;;;;;;;12.77;9.45;;;16.10;99.90;;;;;;5053190;28;20033;-62
2022/10/17 09:09:36;;;;;;;14.77;9.18;;;16.10;99.90;;;;;;5053514;28;20105;-62
2022/10/17 09:12:16;;;;;;;13.70;9.38;;;16.20;99.90;;;;;;5053835;28;20045;-62
2022/10/17 09:15:23;;;;;;;16.08;9.98;;;16.20;99.90;;;;;;5053418;28;20044;-62
2022/10/17 09:18:02;;;;;;;13.15;9.07;;;16.20;99.90;;;;;;5054118;28;20494;-62
2022/10/17 09:20:32;;;;;;;14.20;10.23;;;16.20;99.90;;;;;;5053801;28;20098;-62
2022/10/17 09:23:02;;;;;;;11.95;9.55;;;16.20;99.90;;;;;;5054410;28;20037;-62
2022/10/17 09:25:47;;;;;;;12.48;9.82;;;16.20;99.90;;;;;;5054162;28;20079;-62
2022/10/17 09:28:33;;;;;;;12.80;8.77;;;16.20;99.90;;;;;;5052082;28;20607;-62
2022/10/17 09:31:20;;;;;;;15.77;9.30;;;16.20;99.90;;;;;;5036285;28;20041;-63
2022/10/17 09:33:49;;;;;;;17.65;10.18;;;16.20;99.90;;;;;;5052176;28;20091;-62
2022/10/17 09:36:26;;;;;;;11.88;9.02;;;16.30;99.90;;;;;;5052741;28;20571;-62
2022/10/17 09:38:54;;;;;;;15.70;9.52;;;16.20;99.90;;;;;;5036012;28;20055;-62
2022/10/17 09:41:23;;;;;;;16.48;10.68;;;16.20;99.90;;;;;;5052041;28;20048;-62
2022/10/17 09:43:53;;;;;;;14.18;10.23;;;16.30;99.90;;;;;;5034748;28;20052;-63
2022/10/17 09:46:35;;;;;;;13.15;10.15;;;16.20;99.90;;;;;;5036019;28;20043;-62
2022/10/17 09:49:07;;;;;;;16.45;10.73;;;16.20;99.90;;;;;;5052993;28;20036;-63
2022/10/17 09:51:35;;;;;;;12.25;9.52;;;16.20;99.90;;;;;;5054181;28;20115;-63
2022/10/17 09:54:07;;;;;;;15.15;10.95;;;16.20;99.90;;;;;;5052353;28;20124;-61
2022/10/17 09:57:00;;;;;;;15.80;11.10;;;16.20;99.90;;;;;;5051163;28;20044;-62
2022/10/17 09:59:44;;;;;;;17.42;11.18;;;16.10;99.90;;;;;;5034852;28;20159;-61
2022/10/17 10:02:15;;;;;;;16.15;10.65;;;16.10;99.90;;;;;;5044936;28;20537;-61
2022/10/17 10:05:15;;;;;;;16.10;10.70;;;16.10;99.90;;;;;;5052475;28;20470;-60
2022/10/17 10:07:43;;;;;;;16.52;11.48;;;16.00;99.90;;;;;;5051614;28;20045;-60
2022/10/17 10:10:27;;;;;;;15.25;11.32;;;16.10;99.90;;;;;;5052691;28;20047;-60
2022/10/17 10:13:13;;;;;;;15.88;10.85;;;16.00;99.90;;;;;;5084570;28;20120;-60
2022/10/17 10:15:44;;;;;;;15.05;11.18;;;16.10;99.90;;;;;;5051606;28;20068;-60
2022/10/17 10:18:30;;;;;;;18.73;12.88;;;16.00;99.90;;;;;;5052182;28;20120;-60
2022/10/17 10:21:08;;;;;;;15.95;11.00;;;16.00;99.90;;;;;;5035269;28;20124;-60
2022/10/17 10:23:38;;;;;;;18.10;11.70;;;16.00;99.90;;;;;;5026127;28;20090;-60
2022/10/17 10:26:16;;;;;;;20.42;12.77;;;16.00;99.90;;;;;;5051838;28;20088;-60
2022/10/17 10:28:51;;;;;;;16.48;12.00;;;16.00;99.90;;;;;;5051457;28;20433;-60
2022/10/17 10:31:32;;;;;;;15.98;12.18;;;16.00;99.90;;;;;;5048892;28;20569;-61
2022/10/17 10:34:01;;;;;;;17.35;11.23;;;16.00;99.90;;;;;;5049510;28;20075;-61
2022/10/17 10:36:44;;;;;;;14.73;11.35;;;16.00;99.90;;;;;;5050896;28;20080;-60
2022/10/17 10:39:31;;;;;;;16.10;12.45;;;16.00;99.90;;;;;;5036887;28;20037;-61
2022/10/17 10:41:58;;;;;;;20.23;14.35;;;16.00;99.90;;;;;;5067168;28;20486;-60
2022/10/17 10:44:27;;;;;;;19.95;13.50;;;16.00;99.90;;;;;;5051868;28;20072;-61
2022/10/17 10:47:33;;;;;;;16.95;12.70;;;16.00;99.90;;;;;;5032664;28;20076;-61
2022/10/17 10:50:21;;;;;;;18.98;13.20;;;16.10;99.90;;;;;;5023728;28;20151;-61
2022/10/17 10:52:57;;;;;;;23.85;14.35;;;16.00;99.90;;;;;;5050897;28;20106;-61
2022/10/17 10:55:28;;;;;;;22.15;14.43;;;16.10;99.90;;;;;;5034165;28;20050;-61
2022/10/17 10:58:00;;;;;;;23.02;14.05;;;16.10;99.90;;;;;;5033936;28;20041;-60
2022/10/17 11:00:27;;;;;;;18.50;13.52;;;16.10;99.90;;;;;;5044081;28;20128;-61
2022/10/17 11:02:56;;;;;;;19.40;13.43;;;16.10;99.90;;;;;;5030781;28;20072;-61
2022/10/17 11:05:24;;;;;;;20.98;13.77;;;16.10;99.90;;;;;;5046212;28;20049;-61
2022/10/17 11:08:24;;;;;;;20.85;14.52;;;16.20;99.90;;;;;;5046326;28;20041;-61
2022/10/17 11:11:01;;;;;;;20.60;12.95;;;16.20;99.90;;;;;;5032339;28;20457;-61
2022/10/17 11:13:38;;;;;;;19.50;13.00;;;16.20;99.90;;;;;;5043280;28;20044;-61
2022/10/17 11:16:17;;;;;;;22.77;14.10;;;16.20;99.90;;;;;;5046510;28;20102;-61
2022/10/17 11:19:03;;;;;;;18.67;13.73;;;16.20;99.90;;;;;;5046832;28;20064;-62
2022/10/17 11:21:57;;;;;;;20.38;13.80;;;16.20;99.90;;;;;;5048953;28;20473;-61
2022/10/17 11:24:28;;;;;;;19.05;13.98;;;16.20;99.90;;;;;;5030715;28;20056;-61
2022/10/17 11:26:57;;;;;;;20.42;14.73;;;16.20;99.90;;;;;;5048058;28;20044;-61
2022/10/17 11:29:28;;;;;;;17.17;12.82;;;16.20;99.90;;;;;;5047567;28;20085;-61
2022/10/17 11:31:57;;;;;;;16.88;13.00;;;16.20;99.90;;;;;;5047052;28;20087;-61
2022/10/17 11:34:27;;;;;;;16.27;12.20;;;16.20;99.90;;;;;;5046160;28;20106;-61
2022/10/17 11:37:04;;;;;;;18.33;12.30;;;16.20;99.90;;;;;;5049021;28;20294;-61
2022/10/17 11:39:43;;;;;;;16.95;13.02;;;16.20;99.90;;;;;;5048029;28;20087;-61
2022/10/17 11:42:19;;;;;;;16.10;12.13;;;16.20;99.90;;;;;;5048114;28;20090;-61
2022/10/17 11:44:44;;;;;;;16.75;11.98;;;16.20;99.90;;;;;;5048812;28;20123;-61
2022/10/17 11:47:23;;;;;;;13.63;9.93;;;16.20;99.90;;;;;;5046952;28;20132;-61
2022/10/17 11:50:02;;;;;;;14.40;10.00;;;16.20;99.90;;;;;;5048734;28;20126;-61
2022/10/17 11:52:41;;;;;;;14.00;10.38;;;16.20;99.90;;;;;;5047413;28;20068;-61
2022/10/17 11:55:19;;;;;;;12.25;8.88;;;16.10;99.90;;;;;;5045804;28;20040;-61
2022/10/17 11:57:53;;;;;;;18.10;10.75;;;16.10;99.90;;;;;;5046937;28;20033;-61
2022/10/17 12:00:58;;;;;;;11.60;8.60;;;16.10;99.90;;;;;;5046955;28;20045;-61
2022/10/17 12:03:52;;;;;;;13.90;9.60;;;16.10;99.90;;;;;;5037332;28;20068;-62
2022/10/17 12:06:45;;;;;;;18.00;10.30;;;16.20;99.90;;;;;;5034422;28;20049;-61
2022/10/17 12:09:39;;;;;;;14.93;10.23;;;16.30;99.90;;;;;;5051430;28;20478;-62
2022/10/17 12:12:05;;;;;;;15.30;9.93;;;16.30;99.90;;;;;;5047453;28;20064;-61
2022/10/17 12:14:37;;;;;;;12.32;9.25;;;16.30;99.90;;;;;;5086682;28;20044;-62
2022/10/17 12:17:05;;;;;;;15.48;9.52;;;16.40;99.90;;;;;;5037204;28;20381;-61
2022/10/17 12:19:36;;;;;;;15.80;9.82;;;16.40;99.90;;;;;;5054115;28;20595;-62
2022/10/17 12:22:24;;;;;;;16.13;8.77;;;16.40;99.90;;;;;;5036670;28;20091;-62
2022/10/17 12:24:53;;;;;;;13.68;9.75;;;16.30;99.90;;;;;;5053886;28;20059;-63
2022/10/17 12:27:27;;;;;;;16.42;11.23;;;16.30;99.90;;;;;;5037445;28;20052;-61
2022/10/17 12:30:12;;;;;;;11.73;8.77;;;16.30;99.90;;;;;;5053247;28;20067;-62
2022/10/17 12:32:55;;;;;;;14.38;9.98;;;16.20;99.90;;;;;;5055574;28;20056;-62
2022/10/17 12:35:23;;;;;;;18.30;11.15;;;16.20;99.90;;;;;;5087225;28;20029;-62
2022/10/17 12:37:52;;;;;;;14.10;9.40;;;16.20;99.90;;;;;;5036605;28;20433;-62
2022/10/17 12:40:36;;;;;;;13.73;9.30;;;16.10;99.90;;;;;;5054955;28;20041;-61
2022/10/17 12:43:27;;;;;;;16.90;9.35;;;16.10;99.90;;;;;;5054121;28;20033;-61
2022/10/17 12:45:58;;;;;;;16.23;10.13;;;16.10;99.90;;;;;;5052751;28;20512;-61
2022/10/17 12:48:32;;;;;;;15.52;10.55;;;16.10;99.90;;;;;;5054018;28;20084;-61
2022/10/17 12:51:01;;;;;;;;;;;16.10;99.90;;;;;;5054463;28;20433;-61
2022/10/17 12:53:45;;;;;;;15.30;9.55;;;16.10;99.90;;;;;;5053227;28;19916;-61
2022/10/17 12:56:18;;;;;;;12.90;7.97;;;16.10;99.90;;;;;;5050747;28;20041;-61